Time;durP1;ratioP1;P1;durP2;ratioP2;P2;SDS_P1;SDS_P2;PMS_P1;PMS_P2;Temp;Humidity;BMP_temperature;BMP_pressure;BME280_temperature;BME280_humidity;BME280_pressure;Samples;Min_cycle;Max_cycle;Signal;HPM_P1;HPM_P2
2021/07/17 00:00:35;;;;;;;8.57;3.90;;;21.80;98.40;;;;;;4992265;28;20034;-75
2021/07/17 00:03:02;;;;;;;7.50;3.78;;;21.80;98.40;;;;;;4991687;28;20057;-74
2021/07/17 00:05:28;;;;;;;7.00;3.60;;;21.80;98.40;;;;;;4992002;28;20569;-74
2021/07/17 00:08:04;;;;;;;9.68;4.13;;;21.70;98.30;;;;;;4993618;28;20033;-75
2021/07/17 00:10:49;;;;;;;9.90;3.70;;;21.80;98.30;;;;;;4991627;28;20030;-74
2021/07/17 00:13:17;;;;;;;6.78;3.63;;;21.70;98.30;;;;;;4990963;28;20022;-74
2021/07/17 00:15:44;;;;;;;9.30;3.78;;;21.80;98.30;;;;;;4991206;28;20034;-75
2021/07/17 00:18:09;;;;;;;8.82;4.22;;;21.70;98.30;;;;;;4992084;28;20065;-75
2021/07/17 00:20:35;;;;;;;7.93;3.65;;;21.70;98.30;;;;;;4992206;28;20061;-75
2021/07/17 00:23:01;;;;;;;9.68;3.88;;;21.70;98.30;;;;;;4991690;28;20091;-75
2021/07/17 00:25:28;;;;;;;11.05;4.20;;;21.70;98.30;;;;;;4991842;28;20053;-75
2021/07/17 00:27:54;;;;;;;7.97;4.15;;;21.70;98.30;;;;;;4991574;28;20023;-75
2021/07/17 00:30:20;;;;;;;8.80;4.15;;;21.70;98.30;;;;;;4991831;28;20081;-75
2021/07/17 00:32:46;;;;;;;9.23;3.72;;;21.70;98.30;;;;;;4991443;28;20065;-75
2021/07/17 00:35:12;;;;;;;7.18;3.60;;;21.70;98.30;;;;;;4991653;28;20030;-75
2021/07/17 00:37:38;;;;;;;9.68;3.70;;;21.70;98.30;;;;;;4991981;28;20029;-76
2021/07/17 00:40:07;;;;;;;9.65;4.13;;;21.70;98.30;;;;;;4991291;28;20109;-75
2021/07/17 00:42:40;;;;;;;9.57;4.10;;;21.70;98.30;;;;;;4991480;28;20022;-75
2021/07/17 00:45:06;;;;;;;9.20;4.32;;;21.70;98.40;;;;;;4990333;28;20495;-75
2021/07/17 00:47:34;;;;;;;6.85;3.97;;;21.70;98.30;;;;;;4991851;28;20390;-75
2021/07/17 00:50:00;;;;;;;8.65;3.50;;;21.70;98.30;;;;;;4991397;28;20081;-75
2021/07/17 00:52:26;;;;;;;10.52;4.00;;;21.70;98.30;;;;;;4991381;28;20444;-75
2021/07/17 00:54:52;;;;;;;7.07;3.55;;;21.60;98.30;;;;;;4991160;28;20049;-75
2021/07/17 00:57:19;;;;;;;10.93;3.90;;;21.60;98.30;;;;;;4991297;28;20160;-75
2021/07/17 00:59:47;;;;;;;8.73;4.03;;;21.60;98.30;;;;;;4990937;28;20039;-75
2021/07/17 01:02:16;;;;;;;9.45;4.03;;;21.60;98.20;;;;;;4991660;28;20023;-75
2021/07/17 01:04:42;;;;;;;8.15;3.47;;;21.60;98.30;;;;;;4991313;28;20053;-75
2021/07/17 01:07:08;;;;;;;7.95;3.95;;;21.60;98.30;;;;;;4991624;28;20526;-75
2021/07/17 01:09:34;;;;;;;9.57;4.57;;;21.60;98.30;;;;;;5006649;28;20037;-75
2021/07/17 01:12:00;;;;;;;8.38;4.15;;;21.60;98.30;;;;;;4990953;28;20046;-75
2021/07/17 01:14:26;;;;;;;7.28;3.60;;;21.60;98.30;;;;;;4991325;28;20521;-75
2021/07/17 01:16:52;;;;;;;6.93;3.95;;;21.60;98.30;;;;;;4991092;28;20395;-75
2021/07/17 01:19:23;;;;;;;11.88;4.35;;;21.60;98.30;;;;;;4991105;28;20042;-75
2021/07/17 01:21:53;;;;;;;10.60;4.43;;;21.60;98.40;;;;;;4990917;28;20497;-75
2021/07/17 01:24:19;;;;;;;8.60;3.65;;;21.60;98.50;;;;;;4994224;28;20085;-75
2021/07/17 01:26:45;;;;;;;8.82;3.92;;;21.60;98.50;;;;;;4994391;28;20022;-75
2021/07/17 01:29:11;;;;;;;9.18;4.15;;;21.60;98.60;;;;;;4994813;28;20084;-75
2021/07/17 01:31:37;;;;;;;8.88;3.30;;;21.60;98.80;;;;;;4995112;28;20033;-75
2021/07/17 01:34:03;;;;;;;7.65;3.38;;;21.60;98.80;;;;;;4994380;28;20030;-75
2021/07/17 01:36:28;;;;;;;10.63;4.03;;;21.60;98.90;;;;;;4994825;28;20023;-75
2021/07/17 01:38:54;;;;;;;8.57;3.97;;;21.60;99.10;;;;;;4994193;28;20038;-75
2021/07/17 01:41:21;;;;;;;8.60;3.72;;;21.60;99.00;;;;;;4994545;28;20038;-75
2021/07/17 01:43:47;;;;;;;8.60;3.80;;;21.60;99.00;;;;;;4994435;28;20113;-75
2021/07/17 01:46:15;;;;;;;8.70;4.00;;;21.60;99.10;;;;;;4994668;28;20129;-74
2021/07/17 01:48:41;;;;;;;7.13;3.70;;;21.60;99.10;;;;;;5009203;28;20038;-75
2021/07/17 01:51:06;;;;;;;10.98;4.05;;;21.60;99.20;;;;;;4994761;28;20479;-75
2021/07/17 01:53:32;;;;;;;10.98;4.68;;;21.60;99.10;;;;;;4994181;28;20113;-75
2021/07/17 01:55:58;;;;;;;7.88;3.80;;;21.60;99.20;;;;;;4993895;28;20054;-76
2021/07/17 01:58:23;;;;;;;9.20;3.67;;;21.60;99.10;;;;;;4994329;28;20030;-74
2021/07/17 02:00:49;;;;;;;7.75;3.83;;;21.60;99.20;;;;;;4994136;28;20368;-75
2021/07/17 02:03:14;;;;;;;6.47;4.13;;;21.60;99.20;;;;;;4994263;28;20121;-75
2021/07/17 02:05:40;;;;;;;5.68;3.20;;;21.60;99.20;;;;;;4994068;28;20026;-75
2021/07/17 02:08:11;;;;;;;9.73;3.83;;;21.60;99.10;;;;;;4994210;28;20427;-75
2021/07/17 02:10:36;;;;;;;7.05;3.63;;;21.60;99.20;;;;;;4994031;28;20030;-75
2021/07/17 02:13:10;;;;;;;10.15;4.35;;;21.60;99.20;;;;;;4993533;28;20084;-74
2021/07/17 02:15:41;;;;;;;6.15;3.90;;;21.50;99.20;;;;;;4994306;28;20126;-75
2021/07/17 02:18:07;;;;;;;7.45;3.85;;;21.60;99.20;;;;;;5009298;28;20441;-74
2021/07/17 02:20:33;;;;;;;6.88;3.42;;;21.50;99.20;;;;;;4993768;28;20030;-74
2021/07/17 02:22:59;;;;;;;8.98;4.03;;;21.50;99.20;;;;;;4993583;28;20076;-74
2021/07/17 02:25:25;;;;;;;7.40;3.60;;;21.50;99.10;;;;;;4994166;28;20034;-75
2021/07/17 02:27:51;;;;;;;10.10;3.75;;;21.50;99.10;;;;;;4993701;28;20386;-75
2021/07/17 02:30:17;;;;;;;6.50;3.60;;;21.50;99.20;;;;;;4993711;28;20614;-75
2021/07/17 02:32:43;;;;;;;8.30;3.60;;;21.50;99.10;;;;;;4993560;28;20025;-74
2021/07/17 02:35:09;;;;;;;12.20;4.20;;;21.50;99.10;;;;;;4993279;28;20027;-75
2021/07/17 02:37:35;;;;;;;7.05;3.55;;;21.50;99.10;;;;;;4992517;28;20026;-75
2021/07/17 02:40:01;;;;;;;7.82;3.88;;;21.50;99.10;;;;;;4992854;28;20093;-74
2021/07/17 02:42:27;;;;;;;6.18;3.17;;;21.50;99.10;;;;;;4993487;28;20026;-75
2021/07/17 02:44:53;;;;;;;8.52;3.40;;;21.50;99.20;;;;;;4993167;28;20505;-75
2021/07/17 02:47:18;;;;;;;8.90;4.35;;;21.50;99.10;;;;;;4993334;28;20105;-75
2021/07/17 02:49:44;;;;;;;7.18;3.45;;;21.50;99.10;;;;;;4992595;28;20030;-75
2021/07/17 02:52:10;;;;;;;6.97;3.53;;;21.40;99.10;;;;;;4993390;28;20049;-75
2021/07/17 02:54:35;;;;;;;8.02;3.75;;;21.40;99.00;;;;;;4993679;28;20042;-75
2021/07/17 02:57:01;;;;;;;7.65;3.10;;;21.50;99.10;;;;;;4993106;28;20044;-75
2021/07/17 02:59:26;;;;;;;7.75;4.20;;;21.40;99.10;;;;;;4993253;28;20066;-75
2021/07/17 03:01:52;;;;;;;7.38;3.45;;;21.40;99.00;;;;;;4992609;28;20030;-75
2021/07/17 03:04:21;;;;;;;9.50;4.22;;;21.40;98.90;;;;;;4992590;28;20035;-75
2021/07/17 03:06:46;;;;;;;8.65;4.18;;;21.40;99.00;;;;;;4992541;28;20023;-75
2021/07/17 03:09:12;;;;;;;7.35;3.58;;;21.40;98.90;;;;;;4992416;28;20041;-74
2021/07/17 03:11:38;;;;;;;8.30;4.30;;;21.40;98.90;;;;;;4992773;28;20407;-74
2021/07/17 03:14:04;;;;;;;9.88;3.83;;;21.40;98.90;;;;;;4992700;28;20022;-74
2021/07/17 03:16:31;;;;;;;8.05;3.65;;;21.40;98.80;;;;;;4992923;28;20049;-75
2021/07/17 03:18:57;;;;;;;11.10;4.05;;;21.40;98.80;;;;;;4992462;28;20129;-74
2021/07/17 03:21:23;;;;;;;9.05;3.67;;;21.40;98.80;;;;;;4992742;28;20048;-74
2021/07/17 03:23:49;;;;;;;7.85;4.32;;;21.40;98.80;;;;;;4992702;28;20474;-74
2021/07/17 03:26:15;;;;;;;7.85;3.45;;;21.40;98.90;;;;;;4992653;28;20018;-74
2021/07/17 03:28:41;;;;;;;7.88;4.18;;;21.30;98.80;;;;;;4992467;28;20034;-75
2021/07/17 03:31:07;;;;;;;8.30;3.78;;;21.40;98.80;;;;;;4992862;28;20088;-74
2021/07/17 03:33:33;;;;;;;8.93;3.75;;;21.30;98.80;;;;;;4991900;28;20430;-74
2021/07/17 03:35:59;;;;;;;7.70;3.80;;;21.30;98.80;;;;;;4992139;28;20433;-74
2021/07/17 03:38:25;;;;;;;9.25;4.20;;;21.30;98.70;;;;;;4992380;28;20039;-74
2021/07/17 03:40:51;;;;;;;10.07;4.45;;;21.30;98.70;;;;;;4991869;28;20498;-75
2021/07/17 03:43:17;;;;;;;8.00;3.85;;;21.30;98.70;;;;;;4991343;28;20030;-74
2021/07/17 03:45:43;;;;;;;7.00;4.03;;;21.30;98.70;;;;;;5006308;28;20023;-74
2021/07/17 03:48:09;;;;;;;13.55;4.28;;;21.30;98.70;;;;;;4992678;28;20026;-74
2021/07/17 03:50:35;;;;;;;8.32;4.05;;;21.30;98.60;;;;;;4991277;28;20383;-75
2021/07/17 03:53:01;;;;;;;7.30;3.42;;;21.30;98.70;;;;;;4991013;28;20101;-74
2021/07/17 03:55:27;;;;;;;7.93;3.88;;;21.30;98.60;;;;;;4992341;28;20022;-74
2021/07/17 03:57:53;;;;;;;8.43;3.90;;;21.30;98.50;;;;;;4991798;28;20030;-74
2021/07/17 04:00:19;;;;;;;9.15;4.25;;;21.30;98.60;;;;;;5006961;28;20027;-74
2021/07/17 04:02:45;;;;;;;10.00;3.35;;;21.30;98.90;;;;;;4990369;28;20026;-74
2021/07/17 04:05:13;;;;;;;8.63;3.88;;;21.30;98.50;;;;;;4992127;28;20372;-74
2021/07/17 04:07:39;;;;;;;7.57;3.85;;;21.30;98.50;;;;;;4992386;28;20026;-75
2021/07/17 04:10:07;;;;;;;7.03;4.00;;;21.20;98.60;;;;;;4992283;28;20152;-74
2021/07/17 04:12:33;;;;;;;9.57;3.72;;;21.30;98.50;;;;;;4991627;28;20454;-75
2021/07/17 04:14:59;;;;;;;8.98;3.63;;;21.20;98.50;;;;;;4990213;28;20034;-74
2021/07/17 04:17:25;;;;;;;7.65;4.10;;;21.20;98.50;;;;;;4991508;28;20421;-75
2021/07/17 04:19:51;;;;;;;6.30;3.28;;;21.20;98.50;;;;;;4991675;28;20502;-75
2021/07/17 04:22:17;;;;;;;6.93;3.83;;;21.30;98.60;;;;;;4991835;28;20105;-74
2021/07/17 04:24:42;;;;;;;9.02;3.70;;;21.20;98.40;;;;;;4991692;28;20065;-74
2021/07/17 04:27:08;;;;;;;10.48;4.07;;;21.20;98.40;;;;;;4990703;28;20072;-75
2021/07/17 04:29:33;;;;;;;8.10;3.55;;;21.20;98.40;;;;;;4991927;28;20073;-75
2021/07/17 04:31:59;;;;;;;5.18;2.92;;;21.20;98.50;;;;;;4991325;28;20895;-75
2021/07/17 04:34:26;;;;;;;6.97;3.58;;;21.20;98.50;;;;;;4991672;28;20386;-75
2021/07/17 04:36:51;;;;;;;8.32;3.83;;;21.20;98.50;;;;;;5006609;28;20057;-75
2021/07/17 04:39:18;;;;;;;9.88;3.63;;;21.20;98.70;;;;;;4991478;28;20069;-75
2021/07/17 04:41:43;;;;;;;9.57;3.45;;;21.20;98.50;;;;;;4991370;28;20026;-75
2021/07/17 04:44:09;;;;;;;6.88;3.70;;;21.20;98.50;;;;;;4991711;28;20391;-75
2021/07/17 04:46:35;;;;;;;10.07;3.47;;;21.10;98.40;;;;;;4991503;28;20026;-75
2021/07/17 04:49:00;;;;;;;10.43;3.90;;;21.20;98.40;;;;;;4991496;28;20066;-75
2021/07/17 04:51:26;;;;;;;9.43;4.03;;;21.20;98.40;;;;;;4991549;28;20204;-75
2021/07/17 04:53:52;;;;;;;8.57;3.58;;;21.20;98.50;;;;;;4989942;28;20040;-75
2021/07/17 04:56:18;;;;;;;5.90;3.08;;;21.20;98.40;;;;;;4991444;28;20057;-74
2021/07/17 04:58:44;;;;;;;6.75;3.50;;;21.20;98.40;;;;;;4994936;28;20034;-75
2021/07/17 05:01:09;;;;;;;9.52;4.25;;;21.20;98.50;;;;;;4995198;28;20023;-75
2021/07/17 05:03:35;;;;;;;7.32;3.40;;;21.10;98.30;;;;;;4995713;28;20089;-75
2021/07/17 05:06:02;;;;;;;6.22;3.55;;;21.10;98.30;;;;;;4994166;28;20487;-75
2021/07/17 05:08:28;;;;;;;6.30;3.08;;;21.10;98.40;;;;;;4995204;28;20064;-75
2021/07/17 05:10:53;;;;;;;8.75;3.92;;;21.10;98.30;;;;;;4994906;28;20507;-75
2021/07/17 05:13:19;;;;;;;7.80;3.60;;;21.10;98.30;;;;;;4995144;28;20510;-75
2021/07/17 05:15:45;;;;;;;7.72;3.38;;;21.10;98.40;;;;;;4994670;28;20027;-75
2021/07/17 05:18:11;;;;;;;9.43;3.88;;;21.10;98.30;;;;;;4995087;28;20042;-74
2021/07/17 05:20:38;;;;;;;7.15;3.67;;;21.10;98.30;;;;;;4993278;28;20030;-75
2021/07/17 05:23:04;;;;;;;7.68;3.95;;;21.10;98.30;;;;;;4994768;28;20483;-74
2021/07/17 05:25:30;;;;;;;6.90;3.30;;;21.10;98.20;;;;;;4995127;28;20033;-75
2021/07/17 05:27:55;;;;;;;8.50;3.88;;;21.10;98.20;;;;;;4994559;28;20022;-75
2021/07/17 05:30:22;;;;;;;8.77;3.75;;;21.10;98.30;;;;;;4995015;28;20026;-75
2021/07/17 05:32:47;;;;;;;8.48;3.60;;;21.10;98.30;;;;;;4994471;28;20037;-75
2021/07/17 05:35:13;;;;;;;7.07;3.30;;;21.10;98.20;;;;;;4994703;28;20398;-75
2021/07/17 05:37:39;;;;;;;9.43;3.88;;;21.10;98.20;;;;;;4994933;28;20048;-75
2021/07/17 05:40:06;;;;;;;8.13;3.60;;;21.10;98.20;;;;;;4994905;28;20030;-75
2021/07/17 05:42:32;;;;;;;7.78;3.53;;;21.10;98.10;;;;;;4993174;28;20034;-74
2021/07/17 05:44:58;;;;;;;7.03;3.55;;;21.10;98.10;;;;;;4994436;28;20451;-75
2021/07/17 05:47:23;;;;;;;8.52;3.55;;;21.00;98.10;;;;;;4994626;28;20023;-74
2021/07/17 05:49:49;;;;;;;9.32;4.00;;;21.10;98.10;;;;;;4994429;28;20018;-75
2021/07/17 05:52:14;;;;;;;6.75;3.22;;;21.00;98.10;;;;;;4994487;28;20026;-74
2021/07/17 05:54:40;;;;;;;8.02;3.90;;;21.00;98.20;;;;;;4994094;28;20053;-74
2021/07/17 05:57:08;;;;;;;7.68;3.55;;;21.00;98.20;;;;;;4994753;28;20027;-75
2021/07/17 05:59:34;;;;;;;8.60;3.45;;;21.00;98.10;;;;;;4992607;28;20034;-74
2021/07/17 06:01:59;;;;;;;5.90;3.42;;;21.00;98.10;;;;;;4994165;28;20473;-75
2021/07/17 06:04:25;;;;;;;7.43;4.20;;;21.00;98.10;;;;;;4993743;28;20033;-75
2021/07/17 06:06:51;;;;;;;8.70;3.50;;;21.00;98.10;;;;;;5009022;28;20026;-76
2021/07/17 06:09:16;;;;;;;7.22;4.43;;;21.00;98.20;;;;;;4992253;28;20084;-76
2021/07/17 06:11:42;;;;;;;7.00;3.17;;;21.00;98.10;;;;;;4993283;28;20537;-76
2021/07/17 06:14:07;;;;;;;8.40;3.42;;;21.00;98.00;;;;;;4994389;28;20029;-75
2021/07/17 06:16:33;;;;;;;7.57;3.92;;;21.00;98.00;;;;;;4993104;28;20034;-74
2021/07/17 06:18:59;;;;;;;8.93;4.95;;;21.00;98.10;;;;;;4992437;28;20042;-75
2021/07/17 06:21:24;;;;;;;8.95;3.83;;;21.00;98.10;;;;;;4992565;28;20364;-75
2021/07/17 06:23:50;;;;;;;8.18;4.22;;;21.00;98.10;;;;;;4993256;28;20030;-75
2021/07/17 06:26:16;;;;;;;9.27;4.50;;;21.00;98.10;;;;;;4993743;28;20022;-76
2021/07/17 06:28:41;;;;;;;7.40;3.70;;;21.00;98.10;;;;;;4992596;28;20209;-75
2021/07/17 06:31:07;;;;;;;7.70;3.50;;;21.00;98.20;;;;;;4993285;28;20101;-74
2021/07/17 06:33:34;;;;;;;9.32;4.57;;;21.00;98.20;;;;;;4993178;28;20033;-75
2021/07/17 06:36:00;;;;;;;7.22;3.70;;;21.00;98.20;;;;;;5008331;28;20377;-75
2021/07/17 06:38:26;;;;;;;6.55;3.92;;;21.00;98.20;;;;;;4993355;28;20453;-75
2021/07/17 06:40:51;;;;;;;10.07;4.28;;;21.00;98.20;;;;;;4993084;28;20113;-75
2021/07/17 06:43:17;;;;;;;8.00;3.88;;;21.00;98.20;;;;;;4993610;28;20077;-74
2021/07/17 06:45:43;;;;;;;9.13;4.25;;;21.00;98.20;;;;;;4992868;28;20037;-75
2021/07/17 06:48:09;;;;;;;7.30;3.92;;;21.00;98.30;;;;;;4993392;28;20034;-76
2021/07/17 06:50:35;;;;;;;9.27;4.40;;;21.00;98.30;;;;;;4993088;28;20485;-75
2021/07/17 06:53:01;;;;;;;9.98;4.20;;;21.00;98.30;;;;;;4993012;28;20045;-74
2021/07/17 06:55:26;;;;;;;7.15;4.32;;;21.00;98.30;;;;;;4991926;28;20062;-74
2021/07/17 06:57:52;;;;;;;10.88;4.88;;;21.00;98.30;;;;;;4992589;28;20034;-74
2021/07/17 07:00:19;;;;;;;8.10;3.90;;;21.00;98.30;;;;;;4993413;28;20033;-74
2021/07/17 07:02:44;;;;;;;9.43;5.28;;;21.00;98.30;;;;;;4992269;28;20089;-76
2021/07/17 07:05:11;;;;;;;10.95;4.68;;;21.00;98.30;;;;;;4992896;28;20034;-74
2021/07/17 07:07:37;;;;;;;7.00;4.00;;;21.00;98.40;;;;;;4993104;28;20149;-75
2021/07/17 07:10:08;;;;;;;8.55;5.05;;;21.00;98.40;;;;;;4992272;28;20137;-75
2021/07/17 07:12:37;;;;;;;10.80;5.10;;;21.00;98.40;;;;;;4992151;28;20034;-74
2021/07/17 07:15:08;;;;;;;7.70;4.45;;;21.00;98.40;;;;;;4989073;28;20057;-74
2021/07/17 07:17:35;;;;;;;8.20;4.47;;;21.00;98.50;;;;;;4992351;28;20021;-75
2021/07/17 07:20:00;;;;;;;10.98;5.93;;;21.00;98.40;;;;;;4991224;28;20134;-74
2021/07/17 07:22:26;;;;;;;9.90;5.43;;;21.10;98.60;;;;;;4992161;28;20101;-76
2021/07/17 07:24:52;;;;;;;13.45;6.15;;;21.10;98.70;;;;;;4992447;28;20041;-74
2021/07/17 07:27:17;;;;;;;14.80;6.47;;;21.10;98.70;;;;;;4992355;28;20132;-74
2021/07/17 07:29:43;;;;;;;13.88;7.68;;;21.10;98.70;;;;;;4991777;28;20018;-74
2021/07/17 07:32:08;;;;;;;12.90;6.50;;;21.10;98.80;;;;;;4983341;28;20447;-74
2021/07/17 07:34:34;;;;;;;20.75;9.70;;;21.20;98.90;;;;;;4973101;28;20030;-74
2021/07/17 07:37:00;;;;;;;18.98;9.85;;;21.20;99.00;;;;;;4972925;28;20121;-74
2021/07/17 07:39:25;;;;;;;19.98;11.13;;;21.20;99.00;;;;;;4999167;28;20038;-74
2021/07/17 07:41:51;;;;;;;19.80;11.52;;;21.20;99.10;;;;;;4986465;28;20061;-74
2021/07/17 07:44:17;;;;;;;23.50;11.73;;;21.20;99.20;;;;;;4992080;28;20019;-74
2021/07/17 07:46:42;;;;;;;21.52;11.57;;;21.20;99.20;;;;;;4991115;28;20101;-74
2021/07/17 07:49:08;;;;;;;27.42;12.20;;;21.30;99.20;;;;;;4992225;28;20022;-74
2021/07/17 07:51:34;;;;;;;22.67;12.20;;;21.30;99.20;;;;;;4992202;28;20031;-74
2021/07/17 07:54:00;;;;;;;21.23;13.23;;;21.30;99.20;;;;;;4992131;28;20507;-74
2021/07/17 07:56:26;;;;;;;20.73;12.57;;;21.30;99.30;;;;;;4991862;28;20125;-74
2021/07/17 07:58:51;;;;;;;26.42;13.27;;;21.30;99.30;;;;;;4991851;28;20050;-74
2021/07/17 08:01:17;;;;;;;22.42;11.98;;;21.30;99.20;;;;;;4992222;28;20054;-74
2021/07/17 08:03:43;;;;;;;27.13;12.50;;;21.30;99.10;;;;;;4991757;28;20445;-74
2021/07/17 08:06:08;;;;;;;28.42;13.00;;;21.30;99.10;;;;;;4991857;28;20505;-75
2021/07/17 08:08:34;;;;;;;19.45;11.07;;;21.30;99.00;;;;;;4991782;28;20038;-75
2021/07/17 08:11:00;;;;;;;20.58;11.23;;;21.40;99.10;;;;;;4991132;28;20380;-73
2021/07/17 08:13:26;;;;;;;17.38;10.32;;;21.30;99.20;;;;;;4989866;28;20038;-74
2021/07/17 08:15:53;;;;;;;20.80;10.05;;;21.40;99.30;;;;;;4991211;28;20514;-75
2021/07/17 08:18:19;;;;;;;26.10;10.70;;;21.40;99.30;;;;;;4990321;28;20033;-75
2021/07/17 08:20:45;;;;;;;25.67;10.07;;;21.40;99.40;;;;;;4991807;28;20113;-73
2021/07/17 08:23:11;;;;;;;20.70;9.85;;;21.50;99.40;;;;;;4991853;28;20022;-74
2021/07/17 08:25:37;;;;;;;29.70;10.82;;;21.50;99.30;;;;;;4991938;28;20893;-74
2021/07/17 08:28:03;;;;;;;20.23;9.95;;;21.60;99.20;;;;;;4991704;28;20058;-73
2021/07/17 08:30:32;;;;;;;24.88;10.23;;;21.60;99.10;;;;;;4991656;28;20027;-73
2021/07/17 08:32:57;;;;;;;20.42;9.50;;;21.60;99.00;;;;;;4991114;28;20376;-73
2021/07/17 08:35:24;;;;;;;29.65;9.13;;;21.60;98.90;;;;;;4991721;28;20090;-73
2021/07/17 08:37:49;;;;;;;21.55;9.07;;;21.60;98.80;;;;;;4991199;28;20030;-72
2021/07/17 08:40:15;;;;;;;18.23;10.40;;;21.60;98.80;;;;;;4989961;28;20030;-73
2021/07/17 08:42:50;;;;;;;16.98;9.35;;;21.60;98.70;;;;;;4990322;28;20487;-72
2021/07/17 08:45:17;;;;;;;18.00;9.10;;;21.60;98.70;;;;;;4989493;28;20026;-72
2021/07/17 08:47:44;;;;;;;21.75;9.20;;;21.60;98.60;;;;;;4991178;28;20104;-72
2021/07/17 08:50:18;;;;;;;17.45;8.68;;;21.60;98.50;;;;;;4991431;28;20023;-74
2021/07/17 08:52:44;;;;;;;20.15;8.90;;;21.60;98.50;;;;;;4991285;28;20110;-73
2021/07/17 08:55:11;;;;;;;18.02;8.18;;;21.60;98.50;;;;;;4991535;28;20026;-73
2021/07/17 08:57:39;;;;;;;25.23;7.95;;;21.60;98.50;;;;;;4991664;28;20050;-73
2021/07/17 09:00:12;;;;;;;17.75;8.10;;;21.60;98.80;;;;;;4991446;28;20042;-73
2021/07/17 09:02:42;;;;;;;19.42;8.90;;;21.60;98.30;;;;;;4991664;28;20026;-74
2021/07/17 09:05:11;;;;;;;16.92;8.85;;;21.60;98.30;;;;;;4991393;28;20045;-73
2021/07/17 09:07:38;;;;;;;14.60;8.40;;;21.70;98.50;;;;;;4990966;28;20502;-73
2021/07/17 09:10:34;;;;;;;20.80;8.93;;;21.70;98.60;;;;;;4990795;28;20042;-75
2021/07/17 09:13:07;;;;;;;15.40;8.20;;;21.70;98.50;;;;;;4990912;28;20399;-74
2021/07/17 09:15:33;;;;;;;14.00;8.10;;;21.70;98.50;;;;;;4991334;28;20030;-75
2021/07/17 09:17:59;;;;;;;23.40;7.72;;;21.70;98.60;;;;;;4990408;28;20076;-75
2021/07/17 09:20:25;;;;;;;17.73;8.50;;;21.70;98.60;;;;;;4991401;28;20034;-75
2021/07/17 09:23:09;;;;;;;15.48;7.63;;;21.70;98.60;;;;;;4991328;28;20022;-76
2021/07/17 09:25:40;;;;;;;15.90;8.40;;;21.70;98.60;;;;;;4990980;28;20516;-76
2021/07/17 09:28:21;;;;;;;16.55;7.95;;;21.70;98.60;;;;;;4990480;28;20054;-74
2021/07/17 09:30:48;;;;;;;12.80;8.23;;;21.70;98.60;;;;;;4990272;28;20034;-75
2021/07/17 09:33:15;;;;;;;14.95;8.52;;;21.70;98.50;;;;;;4990857;28;20049;-75
2021/07/17 09:35:43;;;;;;;18.65;8.73;;;21.70;98.50;;;;;;4987874;28;20491;-75
2021/07/17 09:38:09;;;;;;;16.27;8.43;;;21.80;98.50;;;;;;4990858;28;20446;-75
2021/07/17 09:40:49;;;;;;;13.32;7.95;;;21.70;98.50;;;;;;4991370;28;20545;-75
2021/07/17 09:43:31;;;;;;;13.50;8.75;;;21.80;98.50;;;;;;4991095;28;20058;-75
2021/07/17 09:45:57;;;;;;;14.55;8.75;;;21.80;98.50;;;;;;4994208;28;20022;-75
2021/07/17 09:48:31;;;;;;;15.25;8.43;;;21.80;98.40;;;;;;4994587;28;20030;-75
2021/07/17 09:50:59;;;;;;;15.80;8.30;;;21.80;98.40;;;;;;4994080;28;20022;-74
2021/07/17 09:53:38;;;;;;;13.00;8.25;;;21.80;98.40;;;;;;4994508;28;20026;-75
2021/07/17 09:56:12;;;;;;;13.20;8.60;;;21.80;98.40;;;;;;4994114;28;20018;-76
2021/07/17 09:58:39;;;;;;;14.85;8.18;;;21.80;98.30;;;;;;4994713;28;20027;-74
2021/07/17 10:01:12;;;;;;;12.80;8.02;;;21.80;98.30;;;;;;4994459;28;20062;-75
2021/07/17 10:03:39;;;;;;;13.32;7.85;;;21.80;98.30;;;;;;4994460;28;20037;-75
2021/07/17 10:06:06;;;;;;;14.10;8.38;;;21.90;98.40;;;;;;4994618;28;20034;-75
2021/07/17 10:08:36;;;;;;;14.25;8.50;;;21.80;98.30;;;;;;4994036;28;20030;-74
2021/07/17 10:11:11;;;;;;;12.98;8.48;;;21.80;98.30;;;;;;4993903;28;20560;-75
2021/07/17 10:13:38;;;;;;;11.38;7.55;;;21.80;98.30;;;;;;4994138;28;20061;-75
2021/07/17 10:16:18;;;;;;;12.68;7.93;;;21.80;98.30;;;;;;4994356;28;20036;-74
2021/07/17 10:18:45;;;;;;;13.25;8.10;;;21.80;98.30;;;;;;4993774;28;20096;-75
2021/07/17 10:21:11;;;;;;;14.63;8.73;;;21.90;98.30;;;;;;4994020;28;20030;-75
2021/07/17 10:23:38;;;;;;;13.13;8.15;;;21.90;98.30;;;;;;4994242;28;20033;-75
2021/07/17 10:26:04;;;;;;;13.50;8.18;;;21.90;98.30;;;;;;4993677;28;20579;-75
2021/07/17 10:28:30;;;;;;;14.18;8.07;;;21.90;98.30;;;;;;4993542;28;20050;-75
2021/07/17 10:30:58;;;;;;;12.30;7.70;;;21.90;98.30;;;;;;4993541;28;20023;-75
2021/07/17 10:33:24;;;;;;;10.32;7.13;;;21.90;98.30;;;;;;4993517;28;20023;-75
2021/07/17 10:35:52;;;;;;;13.40;8.18;;;21.90;98.20;;;;;;4993533;28;20081;-75
2021/07/17 10:38:21;;;;;;;10.90;8.15;;;21.90;98.20;;;;;;4993397;28;20488;-74
2021/07/17 10:40:49;;;;;;;13.85;7.93;;;21.90;98.20;;;;;;4992032;28;20076;-74
2021/07/17 10:43:16;;;;;;;10.38;7.80;;;22.00;98.30;;;;;;4993599;28;20321;-75
2021/07/17 10:45:43;;;;;;;12.45;8.15;;;21.90;98.20;;;;;;4993258;28;20041;-74
2021/07/17 10:48:27;;;;;;;11.00;7.82;;;22.00;98.20;;;;;;4993670;28;20026;-75
2021/07/17 10:51:00;;;;;;;13.10;7.72;;;22.00;98.20;;;;;;4993073;28;20022;-74
2021/07/17 10:53:53;;;;;;;10.70;7.47;;;22.00;98.20;;;;;;4993255;28;20056;-75
2021/07/17 10:56:28;;;;;;;13.75;7.40;;;22.00;98.20;;;;;;4992990;28;20026;-75
2021/07/17 10:58:57;;;;;;;11.27;7.73;;;22.00;98.10;;;;;;4992952;28;20395;-75
2021/07/17 11:01:23;;;;;;;11.35;6.85;;;22.00;98.20;;;;;;4993338;28;20273;-75
2021/07/17 11:03:50;;;;;;;10.25;7.35;;;22.00;98.10;;;;;;4992232;28;20026;-75
2021/07/17 11:06:29;;;;;;;10.75;7.43;;;22.00;98.10;;;;;;4993051;28;20026;-75
2021/07/17 11:08:56;;;;;;;14.77;7.95;;;22.00;98.20;;;;;;4992696;28;20033;-75
2021/07/17 11:11:27;;;;;;;12.00;7.70;;;22.00;98.20;;;;;;4993030;28;20496;-76
2021/07/17 11:14:17;;;;;;;12.65;6.82;;;22.10;98.40;;;;;;4992555;28;20023;-77
2021/07/17 11:16:48;;;;;;;13.18;6.68;;;22.10;98.20;;;;;;4992411;28;20037;-76
2021/07/17 11:19:29;;;;;;;11.77;6.70;;;22.10;98.20;;;;;;4992695;28;20101;-75
2021/07/17 11:22:07;;;;;;;10.13;6.45;;;22.10;98.30;;;;;;4992734;28;20026;-76
2021/07/17 11:24:33;;;;;;;11.80;6.55;;;22.10;98.30;;;;;;4990466;28;20506;-75
2021/07/17 11:27:14;;;;;;;11.65;6.15;;;22.10;98.40;;;;;;4990613;28;20057;-75
2021/07/17 11:29:41;;;;;;;14.90;6.55;;;22.20;98.50;;;;;;4991155;28;20033;-75
2021/07/17 11:32:08;;;;;;;12.93;6.88;;;22.20;98.50;;;;;;4990901;28;20068;-75
2021/07/17 11:34:35;;;;;;;9.40;6.70;;;22.20;98.40;;;;;;4991037;28;20030;-75
2021/07/17 11:37:06;;;;;;;13.27;6.47;;;22.20;98.40;;;;;;4992270;28;20418;-75
2021/07/17 11:39:34;;;;;;;11.60;6.95;;;22.20;98.50;;;;;;4992512;28;20454;-75
2021/07/17 11:42:03;;;;;;;12.35;7.30;;;22.30;98.40;;;;;;4992220;28;20031;-75
2021/07/17 11:44:38;;;;;;;11.88;6.35;;;22.30;98.50;;;;;;4992116;28;20026;-75
2021/07/17 11:47:13;;;;;;;13.10;7.03;;;22.30;98.50;;;;;;4992018;28;20030;-75
2021/07/17 11:49:45;;;;;;;12.13;6.73;;;22.40;98.60;;;;;;4991438;28;20026;-75
2021/07/17 11:52:16;;;;;;;9.02;6.32;;;22.30;98.60;;;;;;4992327;28;20037;-76
2021/07/17 11:54:50;;;;;;;8.98;6.68;;;22.40;98.70;;;;;;4991528;28;20023;-76
2021/07/17 11:57:25;;;;;;;11.43;6.60;;;22.40;98.70;;;;;;5004968;28;20037;-75
2021/07/17 11:59:54;;;;;;;9.02;5.63;;;22.40;98.70;;;;;;4985489;28;20050;-74
2021/07/17 12:02:21;;;;;;;11.50;5.88;;;22.40;98.60;;;;;;4991201;28;20023;-74
2021/07/17 12:04:51;;;;;;;7.70;5.55;;;22.50;98.80;;;;;;4991076;28;20030;-75
2021/07/17 12:07:28;;;;;;;13.27;6.40;;;22.50;98.80;;;;;;4989898;28;20019;-74
2021/07/17 12:09:57;;;;;;;8.93;5.50;;;22.60;98.70;;;;;;4990280;28;20114;-74
2021/07/17 12:12:55;;;;;;;10.32;6.60;;;22.60;98.90;;;;;;4990049;28;20052;-74
2021/07/17 12:15:30;;;;;;;11.32;5.97;;;22.60;99.00;;;;;;4973127;28;20094;-74
2021/07/17 12:18:06;;;;;;;10.38;6.85;;;22.60;99.00;;;;;;4972298;28;20030;-75
2021/07/17 12:20:33;;;;;;;12.80;5.72;;;22.70;99.10;;;;;;4972558;28;20034;-74
2021/07/17 12:23:13;;;;;;;8.93;6.13;;;22.70;99.10;;;;;;4990279;28;20045;-75
2021/07/17 12:25:41;;;;;;;7.97;5.22;;;22.70;99.20;;;;;;4991701;28;20030;-75
2021/07/17 12:28:16;;;;;;;11.75;4.82;;;22.80;99.20;;;;;;4992214;28;20403;-78
2021/07/17 12:30:50;;;;;;;16.23;5.85;;;22.80;99.30;;;;;;4990230;28;20026;-78
2021/07/17 12:33:24;;;;;;;44.65;5.90;;;22.80;99.10;;;;;;4991330;28;20029;-77
2021/07/17 12:36:21;;;;;;;33.78;5.78;;;22.90;99.00;;;;;;4990992;28;20026;-78
2021/07/17 12:38:56;;;;;;;42.20;6.63;;;23.00;98.80;;;;;;4989924;28;20069;-76
2021/07/17 12:41:27;;;;;;;30.70;6.30;;;23.10;98.80;;;;;;4991396;28;20057;-76
2021/07/17 12:43:54;;;;;;;27.98;6.15;;;23.10;99.00;;;;;;4991505;28;20458;-75